Time;durP1;ratioP1;P1;durP2;ratioP2;P2;SDS_P1;SDS_P2;PMS_P1;PMS_P2;Temp;Humidity;BMP_temperature;BMP_pressure;BME280_temperature;BME280_humidity;BME280_pressure;Samples;Min_cycle;Max_cycle;Signal;HPM_P1;HPM_P2
2023/02/09 00:18:08;;;;;;;34.33;15.45;;;;;;;-2.94;100.00;101983.09;20466539;28;20066;-73
2023/02/09 00:28:09;;;;;;;32.15;15.07;;;;;;;-3.10;100.00;101986.38;20543287;28;20109;-72
2023/02/09 00:38:10;;;;;;;36.75;16.35;;;;;;;-3.14;100.00;101987.84;20541119;28;20328;-72
2023/02/09 00:48:12;;;;;;;37.67;14.80;;;;;;;-3.11;100.00;101984.59;20542679;28;20059;-72
2023/02/09 00:58:13;;;;;;;37.97;15.07;;;;;;;-3.13;100.00;101975.91;20541879;28;20058;-72
2023/02/09 01:08:14;;;;;;;36.00;14.95;;;;;;;-3.15;100.00;101977.50;20537877;28;20106;-72
2023/02/09 01:18:16;;;;;;;36.10;14.68;;;;;;;-3.41;100.00;101976.66;20540156;28;20318;-71
2023/02/09 01:28:17;;;;;;;37.35;14.45;;;;;;;-3.53;100.00;101978.44;20539626;28;20058;-72
2023/02/09 01:38:18;;;;;;;39.55;14.90;;;;;;;-3.71;100.00;101965.28;20536863;28;20061;-72
2023/02/09 01:48:19;;;;;;;36.58;15.63;;;;;;;-3.81;100.00;101951.78;20534337;28;20094;-71
2023/02/09 01:58:21;;;;;;;87.05;29.67;;;;;;;-3.98;100.00;101963.44;20536110;28;20058;-72
2023/02/09 02:08:22;;;;;;;99.50;34.85;;;;;;;-3.96;100.00;101947.41;20535944;28;20054;-71
2023/02/09 02:18:23;;;;;;;57.95;21.02;;;;;;;-4.14;100.00;101946.16;20533741;28;20054;-72
2023/02/09 02:28:24;;;;;;;60.92;20.65;;;;;;;-4.17;100.00;101951.06;20533730;28;20055;-71
2023/02/09 02:38:26;;;;;;;37.88;14.27;;;;;;;-4.35;100.00;101954.94;20533122;28;20062;-71
2023/02/09 02:48:27;;;;;;;41.40;16.50;;;;;;;-4.44;100.00;101932.16;20531974;28;20055;-72
2023/02/09 02:58:28;;;;;;;35.58;13.27;;;;;;;-4.55;100.00;101933.06;20534660;28;20055;-73
2023/02/09 03:08:29;;;;;;;34.25;13.80;;;;;;;-4.68;100.00;101937.34;20542047;28;20094;-73
2023/02/09 03:18:31;;;;;;;31.65;13.32;;;;;;;-4.69;100.00;101919.38;20546968;28;20503;-73
2023/02/09 03:28:32;;;;;;;35.63;14.20;;;;;;;-4.73;100.00;101932.69;20546518;28;20487;-72
2023/02/09 03:38:33;;;;;;;36.75;15.18;;;;;;;-4.87;100.00;101923.19;20546280;28;20138;-72
2023/02/09 03:48:35;;;;;;;37.92;14.20;;;;;;;-5.04;100.00;101927.06;20544677;28;20085;-72
2023/02/09 03:58:36;;;;;;;36.80;13.65;;;;;;;-5.17;100.00;101925.34;20543392;28;20055;-72
2023/02/09 04:08:37;;;;;;;37.30;14.05;;;;;;;-5.23;100.00;101937.63;20543609;28;20048;-72
2023/02/09 04:18:38;;;;;;;33.38;13.07;;;;;;;-5.28;100.00;101936.41;20546285;28;20488;-71
2023/02/09 04:28:40;;;;;;;42.17;16.48;;;;;;;-5.31;100.00;101941.31;20546502;28;20066;-72
2023/02/09 04:38:41;;;;;;;34.25;14.52;;;;;;;-5.45;100.00;101938.63;20541944;28;20065;-72
2023/02/09 04:48:42;;;;;;;49.72;19.55;;;;;;;-5.56;100.00;101946.25;20540747;28;20104;-72
2023/02/09 05:09:03;;;;;;;35.47;13.38;;;;;;;-5.63;100.00;101955.16;20541132;28;20130;-72
2023/02/09 05:19:04;;;;;;;38.20;13.38;;;;;;;-5.73;100.00;101963.78;20539157;28;20054;-73
2023/02/09 05:29:06;;;;;;;33.28;13.85;;;;;;;-5.68;100.00;101962.47;20535985;28;20122;-73
2023/02/09 05:39:07;;;;;;;35.95;15.07;;;;;;;-5.77;100.00;101963.44;20537465;28;20052;-72
2023/02/09 05:49:08;;;;;;;33.95;13.48;;;;;;;-5.77;100.00;101968.53;20536738;28;20133;-71
2023/02/09 05:59:09;;;;;;;45.55;18.85;;;;;;;-5.93;100.00;101978.41;20534467;28;20110;-72
2023/02/09 06:09:11;;;;;;;35.35;15.77;;;;;;;-5.97;100.00;101973.06;20561459;23;20112;-74
2023/02/09 06:19:12;;;;;;;33.65;14.38;;;;;;;-5.97;100.00;101988.38;20696420;28;20062;-75
2023/02/09 06:29:13;;;;;;;41.92;15.07;;;;;;;-5.92;100.00;102005.69;20692495;28;20116;-75
2023/02/09 06:39:14;;;;;;;38.20;14.30;;;;;;;-6.10;100.00;102007.69;20698903;28;20069;-75
2023/02/09 06:49:15;;;;;;;35.40;14.40;;;;;;;-6.13;100.00;101995.63;20715216;28;20705;-76
2023/02/09 06:59:17;;;;;;;37.00;15.23;;;;;;;-5.95;100.00;102012.31;20721979;28;20053;-78
2023/02/09 07:09:18;;;;;;;37.92;14.90;;;;;;;-5.91;100.00;102017.66;20709057;28;20054;-77
2023/02/09 07:19:19;;;;;;;43.60;17.70;;;;;;;-5.92;100.00;102026.06;20772595;28;20124;-77
2023/02/09 07:29:21;;;;;;;40.05;14.73;;;;;;;-5.79;100.00;102033.88;20724477;28;20390;-77
2023/02/09 07:39:22;;;;;;;40.20;16.05;;;;;;;-5.61;100.00;102035.22;20776025;28;20081;-77
2023/02/09 07:49:23;;;;;;;48.50;16.42;;;;;;;-5.39;100.00;102044.50;20772907;28;20057;-77
2023/02/09 07:59:24;;;;;;;44.65;16.65;;;;;;;-5.09;100.00;102039.09;20794902;28;20395;-77
2023/02/09 08:09:26;;;;;;;49.63;20.65;;;;;;;-4.68;100.00;102048.91;20786787;28;20075;-77
2023/02/09 08:19:27;;;;;;;48.90;20.00;;;;;;;-4.43;100.00;102054.09;20723376;28;20078;-78
2023/02/09 08:29:28;;;;;;;46.42;20.63;;;;;;;-4.11;100.00;102058.94;20694653;28;20088;-77
2023/02/09 08:39:29;;;;;;;55.58;23.00;;;;;;;-3.87;100.00;102059.75;20702710;28;20061;-75
2023/02/09 08:49:30;;;;;;;53.97;21.45;;;;;;;-3.56;100.00;102051.56;20693124;28;20058;-73
2023/02/09 08:59:32;;;;;;;52.92;22.38;;;;;;;-3.21;100.00;102057.41;20701023;28;20084;-72
2023/02/09 09:09:34;;;;;;;46.97;21.20;;;;;;;-3.00;100.00;102051.91;20697861;28;20057;-72
2023/02/09 09:19:35;;;;;;;44.85;20.00;;;;;;;-2.69;100.00;102062.47;20698425;28;20487;-72
2023/02/09 09:29:38;;;;;;;43.63;18.63;;;;;;;-1.84;100.00;102072.97;20701023;28;20507;-73
2023/02/09 09:39:40;;;;;;;42.65;18.73;;;;;;;-1.81;100.00;102078.31;20701275;28;20482;-71
2023/02/09 09:49:41;;;;;;;44.88;18.52;;;;;;;-1.54;100.00;102083.31;20694593;28;20159;-72
2023/02/09 09:59:42;;;;;;;43.97;19.00;;;;;;;-1.32;100.00;102086.38;20694786;28;20058;-72
2023/02/09 10:09:43;;;;;;;42.40;18.60;;;;;;;-0.97;100.00;102084.97;20696010;28;20085;-71
2023/02/09 10:41:10;;;;;;;49.42;21.55;;;;;;;-0.14;100.00;102069.06;20969879;28;20497;-83
2023/02/09 10:51:11;;;;;;;44.20;21.40;;;;;;;0.18;100.00;102056.22;20905930;28;20056;-83
2023/02/09 11:01:12;;;;;;;47.75;22.10;;;;;;;0.58;100.00;102040.25;20864310;28;20107;-84
2023/02/09 11:11:14;;;;;;;44.45;19.95;;;;;;;0.69;100.00;102036.53;20849621;28;20053;-84
2023/02/09 11:21:15;;;;;;;47.28;22.63;;;;;;;0.86;100.00;102026.16;20856126;28;20061;-86
2023/02/09 11:31:16;;;;;;;46.88;23.70;;;;;;;0.96;100.00;102015.53;20877193;28;20053;-85
2023/02/09 11:51:37;;;;;;;45.85;20.98;;;;;;;1.39;100.00;101981.44;20862292;28;20160;-84
2023/02/09 12:01:39;;;;;;;48.47;21.38;;;;;;;1.72;100.00;101958.88;20887535;28;20417;-85
2023/02/09 12:11:40;;;;;;;44.15;20.33;;;;;;;1.80;100.00;101960.09;20847472;28;20088;-85
2023/02/09 12:21:41;;;;;;;37.83;19.08;;;;;;;2.04;98.47;101963.78;20852179;28;20048;-85
2023/02/09 12:31:43;;;;;;;35.80;17.95;;;;;;;2.06;99.45;101963.84;20868693;28;20395;-84
2023/02/09 12:41:48;;;;;;;37.83;18.48;;;;;;;2.29;95.60;101968.28;20892296;28;20052;-83
2023/02/09 12:51:49;;;;;;;37.65;18.70;;;;;;;2.43;93.26;101962.84;20903887;28;20049;-83
2023/02/09 13:01:50;;;;;;;37.35;18.52;;;;;;;2.54;90.00;101970.25;20863830;28;20053;-83
2023/02/09 13:11:52;;;;;;;32.80;16.90;;;;;;;2.59;83.50;101978.19;20891363;28;20061;-84
2023/02/09 13:21:53;;;;;;;34.67;16.25;;;;;;;2.73;78.77;101971.91;20863773;28;20053;-82
2023/02/09 13:31:56;;;;;;;32.20;15.80;;;;;;;3.03;77.09;101953.25;20863212;28;20053;-83
2023/02/09 13:41:58;;;;;;;29.67;14.95;;;;;;;3.11;74.48;101953.53;20860808;28;20112;-83
2023/02/09 13:51:59;;;;;;;27.63;14.23;;;;;;;3.06;72.30;101959.41;20874287;28;20049;-83
2023/02/09 14:02:00;;;;;;;33.92;15.40;;;;;;;3.09;72.54;101948.31;20859222;28;20179;-84
2023/02/09 14:12:01;;;;;;;30.10;14.15;;;;;;;3.21;70.93;101959.16;20845256;28;20064;-83
2023/02/09 14:22:03;;;;;;;30.05;14.93;;;;;;;3.32;71.28;101963.03;20851996;28;20453;-84
2023/02/09 14:32:05;;;;;;;27.50;13.52;;;;;;;3.39;70.53;101968.44;20871325;28;20048;-84
2023/02/09 14:42:07;;;;;;;31.67;15.38;;;;;;;3.39;71.38;101956.38;20854705;28;20052;-85
2023/02/09 14:52:08;;;;;;;28.50;14.23;;;;;;;3.32;72.53;101957.88;20860903;28;20053;-84
2023/02/09 15:02:10;;;;;;;28.35;14.20;;;;;;;3.32;73.50;101967.34;20869305;28;22616;-84
2023/02/09 15:12:12;;;;;;;31.00;15.48;;;;;;;3.27;73.56;101974.94;20859285;28;20053;-85
2023/02/09 15:22:14;;;;;;;33.75;16.40;;;;;;;3.07;76.07;101981.03;20884306;28;20053;-85
2023/02/09 15:32:15;;;;;;;35.17;17.02;;;;;;;3.01;78.45;101989.41;20881762;28;20403;-85
2023/02/09 15:52:36;;;;;;;33.80;17.58;;;;;;;2.75;78.98;101997.81;20891409;28;20049;-85
2023/02/09 16:02:37;;;;;;;34.75;18.70;;;;;;;2.66;79.11;101993.13;20894695;28;20057;-86
2023/02/09 16:12:39;;;;;;;40.60;19.75;;;;;;;2.32;82.70;101985.66;20850683;28;20058;-86
2023/02/09 16:22:41;;;;;;;48.25;24.08;;;;;;;2.12;82.87;102002.88;20890075;28;20095;-86
2023/02/09 16:32:42;;;;;;;39.92;19.88;;;;;;;1.76;84.74;101999.50;20908554;28;20045;-86
2023/02/09 16:42:44;;;;;;;51.00;27.58;;;;;;;1.28;89.38;102011.91;20845329;28;20049;-87
2023/02/09 16:52:47;;;;;;;37.50;18.27;;;;;;;0.88;92.38;102020.28;20871652;28;20509;-86
2023/02/09 17:02:49;;;;;;;55.28;25.45;;;;;;;0.53;94.63;102041.72;20887762;28;20072;-86
2023/02/09 17:12:50;;;;;;;47.55;22.67;;;;;;;0.27;97.66;102047.19;20907181;28;20061;-86
2023/02/09 17:22:54;;;;;;;39.93;19.97;;;;;;;-0.07;100.00;102060.88;20831963;28;20053;-86
2023/02/09 17:32:55;;;;;;;63.22;31.83;;;;;;;-0.27;100.00;102059.78;20880714;28;20461;-85
2023/02/09 17:42:56;;;;;;;45.33;21.05;;;;;;;-0.49;100.00;102080.84;20890269;28;20109;-86
2023/02/09 17:52:59;;;;;;;40.80;18.20;;;;;;;-0.76;100.00;102075.06;20863922;28;20053;-86
2023/02/09 18:03:00;;;;;;;52.97;24.33;;;;;;;-0.92;100.00;102081.00;20869315;28;20084;-86
2023/02/09 18:13:01;;;;;;;53.15;23.35;;;;;;;-1.06;100.00;102072.47;20884728;28;20111;-86
2023/02/09 18:23:03;;;;;;;51.25;24.25;;;;;;;-1.18;100.00;102101.75;20874024;28;20378;-87
2023/02/09 18:33:04;;;;;;;56.47;26.45;;;;;;;-1.39;100.00;102102.25;20881472;28;20152;-87
2023/02/09 18:43:05;;;;;;;44.05;21.75;;;;;;;-1.54;100.00;102106.44;20897054;28;20580;-86
2023/02/09 18:53:06;;;;;;;47.20;20.80;;;;;;;-1.60;100.00;102134.31;20877739;28;20071;-87
2023/02/09 19:03:08;;;;;;;56.22;25.42;;;;;;;-1.71;100.00;102151.66;20896650;28;20110;-86
2023/02/09 19:13:09;;;;;;;39.30;18.63;;;;;;;-1.82;100.00;102168.06;20854386;28;20421;-87
2023/02/09 19:23:10;;;;;;;38.70;17.50;;;;;;;-1.91;100.00;102183.78;20890088;28;20111;-85
2023/02/09 19:33:12;;;;;;;45.45;18.95;;;;;;;-1.96;100.00;102190.31;20840327;28;20106;-86
2023/02/09 19:43:13;;;;;;;47.92;23.42;;;;;;;-1.83;100.00;102187.69;20840693;28;20395;-86
2023/02/09 19:53:14;;;;;;;62.85;30.38;;;;;;;-1.95;100.00;102196.34;20930322;28;20049;-86
2023/02/09 20:03:18;;;;;;;59.20;27.83;;;;;;;-2.04;100.00;102199.19;20914856;28;20497;-86
2023/02/09 20:13:42;;;;;;;50.42;24.17;;;;;;;-2.13;100.00;102191.78;20705614;28;20046;-86
2023/02/09 20:23:47;;;;;;;51.70;23.90;;;;;;;-2.14;100.00;102197.72;20688086;28;20080;-86
2023/02/09 20:33:49;;;;;;;65.40;27.55;;;;;;;-2.24;100.00;102186.75;20761283;28;20053;-86
2023/02/09 20:54:10;;;;;;;54.05;26.00;;;;;;;-2.35;100.00;102210.06;20837543;28;20469;-87
2023/02/09 21:04:18;;;;;;;43.55;20.50;;;;;;;-2.44;100.00;102235.09;20846075;28;20072;-87
2023/02/09 21:14:20;;;;;;;40.75;18.52;;;;;;;-2.55;100.00;102247.97;20844713;28;20462;-86
2023/02/09 21:24:32;;;;;;;42.72;20.52;;;;;;;-2.44;100.00;102249.59;20873767;28;20657;-87
2023/02/09 21:34:33;;;;;;;46.28;21.02;;;;;;;-2.58;100.00;102270.06;20910117;28;20045;-86
2023/02/09 21:44:35;;;;;;;52.92;22.60;;;;;;;-2.67;100.00;102276.25;20858455;28;20045;-86
2023/02/09 21:54:36;;;;;;;53.67;25.88;;;;;;;-2.80;100.00;102289.91;20897067;28;20049;-86
2023/02/09 22:04:38;;;;;;;62.53;27.80;;;;;;;-2.89;100.00;102285.03;20868092;28;20057;-86
2023/02/09 22:14:39;;;;;;;55.53;25.90;;;;;;;-2.97;100.00;102283.63;20848450;22;20524;-73
2023/02/09 22:24:41;;;;;;;50.47;25.42;;;;;;;-3.12;100.00;102277.44;20908221;22;20130;-70
2023/02/09 22:34:42;;;;;;;57.08;26.42;;;;;;;-3.22;100.00;102272.44;20932537;28;20045;-71
2023/02/09 22:44:43;;;;;;;58.10;25.95;;;;;;;-3.27;100.00;102292.63;20932683;28;20586;-69
2023/02/09 22:54:44;;;;;;;61.72;25.38;;;;;;;-3.24;100.00;102289.41;20932370;28;20049;-69
2023/02/09 23:04:46;;;;;;;57.80;24.83;;;;;;;-3.21;100.00;102302.41;20934491;28;20053;-69
2023/02/09 23:14:47;;;;;;;64.97;27.38;;;;;;;-3.34;100.00;102297.22;20940147;28;20483;-69
2023/02/09 23:24:48;;;;;;;65.63;28.98;;;;;;;-3.33;100.00;102305.00;20945994;28;20053;-68
2023/02/09 23:34:49;;;;;;;60.53;28.38;;;;;;;-3.37;100.00;102297.88;20954656;28;20056;-69
2023/02/09 23:44:51;;;;;;;59.55;29.48;;;;;;;-3.35;100.00;102311.69;20953111;28;20084;-69
2023/02/09 23:54:52;;;;;;;60.45;27.95;;;;;;;-3.36;100.00;102292.84;20953844;28;20053;-69
